Time;durP1;ratioP1;P1;durP2;ratioP2;P2;SDS_P1;SDS_P2;PMS_P1;PMS_P2;Temp;Humidity;BMP_temperature;BMP_pressure;BME280_temperature;BME280_humidity;BME280_pressure;Samples;Min_cycle;Max_cycle;Signal;HPM_P1;HPM_P2
2023/01/17 00:15:08;;;;;;;0.20;0.10;;;12.30;99.90;;;;;;21064099;28;20408;-71
2023/01/17 01:37:31;;;;;;;0.20;0.10;;;13.50;99.90;;;;;;21069124;28;20415;-71
2023/01/17 01:47:40;;;;;;;0.20;0.10;;;13.90;99.90;;;;;;21050518;28;21230;-72
2023/01/17 01:57:49;;;;;;;0.20;0.10;;;13.90;99.90;;;;;;21068572;28;20937;-71
2023/01/17 02:07:58;;;;;;;0.20;0.10;;;13.90;99.90;;;;;;21067988;28;20396;-72
2023/01/17 02:18:16;;;;;;;0.20;0.10;;;14.20;99.90;;;;;;21066550;28;20396;-72
2023/01/17 02:28:38;;;;;;;0.20;0.10;;;14.20;99.90;;;;;;21065671;28;20507;-72
2023/01/17 02:38:51;;;;;;;0.20;0.10;;;14.40;99.90;;;;;;21065812;28;20404;-72
2023/01/17 02:48:56;;;;;;;0.20;0.05;;;14.40;99.90;;;;;;21046606;28;20442;-72
2023/01/17 02:59:12;;;;;;;0.20;0.10;;;14.60;99.90;;;;;;21046669;28;20867;-73
2023/01/17 03:09:17;;;;;;;0.20;0.10;;;15.40;99.90;;;;;;21063778;28;20404;-72
2023/01/17 03:19:22;;;;;;;0.20;0.10;;;15.70;99.90;;;;;;21061798;28;20953;-72
2023/01/17 03:29:26;;;;;;;0.20;0.10;;;16.10;99.90;;;;;;21062257;28;20415;-71
2023/01/17 03:39:31;;;;;;;0.20;0.10;;;16.30;99.90;;;;;;21061648;28;20790;-72
2023/01/17 03:49:35;;;;;;;0.20;0.10;;;16.40;99.90;;;;;;21066067;28;20500;-72
2023/01/17 03:59:41;;;;;;;0.20;0.07;;;16.40;99.90;;;;;;21076844;28;20404;-71
2023/01/17 04:09:45;;;;;;;0.20;0.10;;;16.40;99.90;;;;;;21077440;28;20407;-72
2023/01/17 04:19:50;;;;;;;0.20;0.10;;;16.50;99.90;;;;;;21079097;28;20402;-69
2023/01/17 04:29:54;;;;;;;0.20;0.10;;;16.30;99.90;;;;;;21157844;28;20912;-71
2023/01/17 04:39:59;;;;;;;0.20;0.10;;;16.40;99.90;;;;;;21159018;28;20445;-70
2023/01/17 04:50:03;;;;;;;0.20;0.10;;;16.30;99.90;;;;;;21157870;28;20411;-71
2023/01/17 05:00:10;;;;;;;0.20;0.10;;;16.30;99.90;;;;;;21155425;28;20405;-71
2023/01/17 05:10:14;;;;;;;0.20;0.10;;;16.20;99.90;;;;;;21136967;28;20465;-70
2023/01/17 05:20:21;;;;;;;0.20;0.10;;;16.00;99.90;;;;;;21104342;28;20395;-71
2023/01/17 05:30:26;;;;;;;0.20;0.10;;;16.00;99.90;;;;;;21153187;28;20493;-71
2023/01/17 05:40:32;;;;;;;0.20;0.10;;;15.90;99.90;;;;;;21152131;28;20402;-72
2023/01/17 05:50:38;;;;;;;0.20;0.00;;;15.90;99.90;;;;;;21152805;28;20442;-72
2023/01/17 06:00:43;;;;;;;0.20;0.10;;;15.70;99.90;;;;;;21150376;28;20862;-71
2023/01/17 06:10:47;;;;;;;0.20;0.10;;;15.40;99.90;;;;;;21149938;28;20731;-71
2023/01/17 06:20:54;;;;;;;0.20;0.10;;;15.30;99.90;;;;;;21148516;28;20398;-71
2023/01/17 06:30:59;;;;;;;0.20;0.10;;;15.20;99.90;;;;;;21149267;28;20547;-70
2023/01/17 06:41:07;;;;;;;0.20;0.10;;;15.10;99.90;;;;;;21145085;28;20486;-72
2023/01/17 06:51:11;;;;;;;0.20;0.10;;;15.00;99.90;;;;;;21059032;28;20925;-73
2023/01/17 07:01:16;;;;;;;0.20;0.10;;;14.90;99.90;;;;;;21057097;28;20474;-70
2023/01/17 07:11:21;;;;;;;0.20;0.00;;;14.80;99.90;;;;;;21058874;28;20419;-73
2023/01/17 07:21:26;;;;;;;0.20;0.10;;;14.60;99.90;;;;;;21059163;28;20751;-70
2023/01/17 07:31:32;;;;;;;0.20;0.10;;;14.40;99.90;;;;;;21073380;28;20407;-72
2023/01/17 07:41:40;;;;;;;0.20;0.10;;;14.40;99.90;;;;;;21118739;28;20393;-73
2023/01/17 07:51:46;;;;;;;0.20;0.10;;;14.40;99.90;;;;;;21129821;28;20416;-73
2023/01/17 08:01:51;;;;;;;0.20;0.03;;;14.50;99.90;;;;;;21101024;28;20404;-73
2023/01/17 08:11:55;;;;;;;0.20;0.10;;;14.60;99.90;;;;;;21142629;28;20573;-72
2023/01/17 08:22:00;;;;;;;0.20;0.10;;;14.60;99.90;;;;;;21067037;28;20706;-68
2023/01/17 08:32:05;;;;;;;0.20;0.10;;;13.10;99.90;;;;;;21058075;28;20416;-71
2023/01/17 08:42:10;;;;;;;0.20;0.00;;;12.70;99.90;;;;;;21061880;28;20569;-71
2023/01/17 08:52:14;;;;;;;0.20;0.10;;;11.80;99.90;;;;;;21151428;28;20420;-70
2023/01/17 09:02:20;;;;;;;0.20;0.10;;;12.00;99.90;;;;;;21098676;28;20916;-67
2023/01/17 09:12:24;;;;;;;0.20;0.10;;;12.10;99.90;;;;;;21118109;27;20408;-72
2023/01/17 09:22:29;;;;;;;0.20;0.10;;;12.40;99.90;;;;;;21103970;28;20763;-72
2023/01/17 09:32:33;;;;;;;0.20;0.00;;;12.60;99.90;;;;;;21108482;28;20410;-71
2023/01/17 09:42:40;;;;;;;0.20;0.10;;;12.80;99.90;;;;;;21107803;28;20405;-70
2023/01/17 09:52:45;;;;;;;0.20;0.10;;;13.00;99.90;;;;;;21097587;28;20416;-71
2023/01/17 10:03:22;;;;;;;0.20;0.10;;;13.40;99.90;;;;;;21105377;28;20400;-70
2023/01/17 10:13:38;;;;;;;0.20;0.10;;;14.30;99.90;;;;;;21061814;28;20427;-71
2023/01/17 10:24:03;;;;;;;0.20;0.10;;;14.70;99.90;;;;;;21095777;28;20400;-70
2023/01/17 10:34:14;;;;;;;0.20;0.10;;;14.90;99.90;;;;;;21119793;28;20394;-71
2023/01/17 10:44:25;;;;;;;0.20;0.10;;;15.50;99.90;;;;;;21100662;28;20499;-69
2023/01/17 10:54:43;;;;;;;0.20;0.10;;;15.40;99.90;;;;;;21102571;28;20409;-69
2023/01/17 11:04:53;;;;;;;0.20;0.10;;;16.70;99.90;;;;;;21048796;28;20404;-71
2023/01/17 11:15:18;;;;;;;0.20;0.10;;;16.80;99.90;;;;;;21100838;28;20429;-73
2023/01/17 11:25:33;;;;;;;0.20;0.10;;;16.80;99.90;;;;;;21100533;28;20407;-73
2023/01/17 11:35:43;;;;;;;0.20;0.10;;;17.30;99.90;;;;;;21099575;28;20446;-71
2023/01/17 11:46:02;;;;;;;0.20;0.10;;;17.40;99.90;;;;;;21097382;28;20388;-72
2023/01/17 11:56:10;;;;;;;0.20;0.10;;;17.40;99.90;;;;;;21098466;28;20452;-72
2023/01/17 12:06:21;;;;;;;0.20;0.10;;;17.20;99.90;;;;;;21098979;28;20417;-72
2023/01/17 12:16:35;;;;;;;0.20;0.10;;;17.40;99.90;;;;;;21110586;28;20410;-72
2023/01/17 12:26:44;;;;;;;0.20;0.10;;;17.90;99.90;;;;;;21072118;28;20400;-71
2023/01/17 12:36:52;;;;;;;0.20;0.10;;;18.20;99.90;;;;;;21078568;28;20404;-70
2023/01/17 12:47:02;;;;;;;0.20;0.10;;;18.50;99.90;;;;;;21129898;28;20410;-71
2023/01/17 12:57:14;;;;;;;0.20;0.10;;;18.00;99.90;;;;;;21095998;28;20765;-71
2023/01/17 13:07:27;;;;;;;0.20;0.10;;;18.20;99.90;;;;;;21091963;28;20397;-71
2023/01/17 13:17:38;;;;;;;0.20;0.10;;;18.10;99.90;;;;;;21064443;28;21185;-68
2023/01/17 13:28:05;;;;;;;0.20;0.10;;;17.20;99.90;;;;;;21091923;28;20405;-68
2023/01/17 13:38:26;;;;;;;0.20;0.10;;;17.20;99.90;;;;;;21059032;28;20496;-68
2023/01/17 13:48:36;;;;;;;0.20;0.10;;;17.30;99.90;;;;;;21091863;28;20387;-70
2023/01/17 13:58:57;;;;;;;0.20;0.10;;;17.00;99.90;;;;;;21089625;28;20404;-71
2023/01/17 14:09:05;;;;;;;0.20;0.10;;;17.50;99.90;;;;;;21147319;28;20972;-70
2023/01/17 14:19:25;;;;;;;0.20;0.07;;;16.70;99.90;;;;;;21147185;28;20437;-71
2023/01/17 14:29:58;;;;;;;0.20;0.10;;;16.60;99.90;;;;;;21148126;28;20529;-70
2023/01/17 14:40:02;;;;;;;0.20;0.10;;;17.00;99.90;;;;;;21140267;28;20499;-70
2023/01/17 14:50:21;;;;;;;0.20;0.10;;;16.50;99.90;;;;;;21125423;28;20406;-71
2023/01/17 15:00:28;;;;;;;0.20;0.10;;;16.70;99.90;;;;;;21071180;28;20393;-72
2023/01/17 15:10:35;;;;;;;0.20;0.10;;;15.90;99.90;;;;;;21043190;28;20432;-72
2023/01/17 15:20:41;;;;;;;0.20;0.10;;;15.50;99.90;;;;;;21065527;28;20789;-72
2023/01/17 15:31:18;;;;;;;0.20;0.10;;;16.00;99.90;;;;;;21097146;28;20414;-70
2023/01/17 15:41:26;;;;;;;0.20;0.10;;;16.40;99.90;;;;;;21020062;28;20400;-71
2023/01/17 15:51:35;;;;;;;0.20;0.10;;;15.60;99.90;;;;;;21108977;28;20413;-72
2023/01/17 16:01:39;;;;;;;0.20;0.10;;;15.20;99.90;;;;;;21113777;28;20885;-71
2023/01/17 16:11:44;;;;;;;0.20;0.03;;;15.10;99.90;;;;;;21109610;28;20555;-72
2023/01/17 16:21:49;;;;;;;0.20;0.10;;;14.30;99.90;;;;;;21104906;28;20686;-69
2023/01/17 16:31:54;;;;;;;0.20;0.10;;;13.90;99.90;;;;;;21105349;27;20471;-72
2023/01/17 16:42:01;;;;;;;0.20;0.10;;;13.70;99.90;;;;;;21102011;28;21858;-70
2023/01/17 16:52:07;;;;;;;0.20;0.10;;;13.20;99.90;;;;;;21066392;28;20404;-71
2023/01/17 17:02:10;;;;;;;0.20;0.10;;;12.80;99.90;;;;;;21070590;28;20476;-73
2023/01/17 17:12:16;;;;;;;0.20;0.10;;;12.60;99.90;;;;;;21108058;28;20507;-70
2023/01/17 17:22:19;;;;;;;0.20;0.10;;;12.40;99.90;;;;;;21114907;28;20711;-72
2023/01/17 17:32:24;;;;;;;0.20;0.10;;;12.10;99.90;;;;;;21133103;28;20402;-73
2023/01/17 17:42:28;;;;;;;0.20;0.10;;;11.90;99.90;;;;;;21126159;28;20772;-73
2023/01/17 17:52:34;;;;;;;0.20;0.10;;;11.70;99.90;;;;;;21101517;28;20398;-74
2023/01/17 18:02:38;;;;;;;0.20;0.10;;;11.60;99.90;;;;;;21129792;28;20510;-74
2023/01/17 18:12:43;;;;;;;0.20;0.10;;;11.20;99.90;;;;;;21147554;28;20415;-73
2023/01/17 18:22:47;;;;;;;0.20;0.10;;;11.00;99.90;;;;;;21146688;28;20938;-74
2023/01/17 18:32:52;;;;;;;0.20;0.10;;;10.70;99.90;;;;;;21095225;28;20905;-74
2023/01/17 18:42:56;;;;;;;0.20;0.10;;;10.70;99.90;;;;;;21070320;28;20395;-74
2023/01/17 18:53:02;;;;;;;0.20;0.10;;;10.10;99.90;;;;;;21107345;28;20412;-72
2023/01/17 19:03:05;;;;;;;0.20;0.10;;;9.90;99.90;;;;;;21120167;28;20413;-72
2023/01/17 19:13:11;;;;;;;0.20;0.10;;;9.80;99.90;;;;;;21110629;28;20460;-72
2023/01/17 19:23:14;;;;;;;0.20;0.10;;;9.80;99.90;;;;;;21098294;28;20398;-72
2023/01/17 19:33:20;;;;;;;0.20;0.10;;;9.90;99.90;;;;;;21093093;28;20502;-73
2023/01/17 19:43:24;;;;;;;0.20;0.10;;;9.80;99.90;;;;;;21072575;28;20402;-74
2023/01/17 19:53:29;;;;;;;0.20;0.10;;;9.70;99.90;;;;;;21139116;28;20928;-72
2023/01/17 20:03:33;;;;;;;0.20;0.10;;;9.60;99.90;;;;;;21128648;28;20429;-74
2023/01/17 20:13:39;;;;;;;0.20;0.10;;;9.40;99.90;;;;;;21098147;28;20414;-74
2023/01/17 20:23:45;;;;;;;0.20;0.10;;;9.40;99.90;;;;;;21118964;28;20821;-73
2023/01/17 20:33:52;;;;;;;0.20;0.10;;;9.40;99.90;;;;;;21060865;28;20495;-74
2023/01/17 20:43:59;;;;;;;0.20;0.10;;;9.30;99.90;;;;;;21071959;28;20897;-74
2023/01/17 20:54:05;;;;;;;0.20;0.10;;;9.50;99.90;;;;;;21152654;28;20873;-73
2023/01/17 21:04:10;;;;;;;0.20;0.10;;;9.30;99.90;;;;;;21149922;28;20428;-72
2023/01/17 21:14:15;;;;;;;0.20;0.10;;;9.30;99.90;;;;;;21108477;28;20481;-74
2023/01/17 21:24:19;;;;;;;0.20;0.10;;;9.20;99.90;;;;;;21131950;28;20403;-76
2023/01/17 21:34:24;;;;;;;0.20;0.10;;;9.30;99.90;;;;;;21136372;28;20402;-78
2023/01/17 21:44:35;;;;;;;0.20;0.10;;;9.30;99.90;;;;;;21141195;28;20874;-76
2023/01/17 22:05:02;;;;;;;0.20;0.10;;;9.30;99.90;;;;;;21107598;28;20924;-72
2023/01/17 22:15:08;;;;;;;0.20;0.10;;;9.20;99.90;;;;;;21107390;28;20447;-71
2023/01/17 22:25:12;;;;;;;0.20;0.10;;;9.20;99.90;;;;;;21105088;28;20486;-71
2023/01/17 22:35:17;;;;;;;0.20;0.10;;;9.00;99.90;;;;;;21087305;27;20398;-74
2023/01/17 22:45:21;;;;;;;0.20;0.10;;;8.90;99.90;;;;;;21109961;27;20889;-72
2023/01/17 22:55:26;;;;;;;0.20;0.10;;;8.80;99.90;;;;;;21103291;28;20415;-72
2023/01/17 23:05:30;;;;;;;0.20;0.10;;;8.80;99.90;;;;;;21106279;28;20486;-72
2023/01/17 23:26:01;;;;;;;0.20;0.00;;;8.60;99.90;;;;;;21112279;28;20393;-72
2023/01/17 23:36:08;;;;;;;0.20;0.10;;;8.60;99.90;;;;;;21128631;28;20405;-73
2023/01/17 23:46:12;;;;;;;0.20;0.00;;;8.60;99.90;;;;;;21134266;28;20719;-72
2023/01/17 23:56:20;;;;;;;0.20;0.10;;;8.60;99.90;;;;;;21145226;28;20426;-71
